Wichita Mid Continent Airport
KICT : now visible

Airfield :











YOU CAN JOIN US ON...

 
LOGIN :

Register | Disclaimer

   EN    FR    IT 

 









Legend :    VFR   Marginal VFR   IFR   Intensive IFR   Very Intensive IFR
Visi :
Ceiling :
>= 8 km
>= 3000ft
5 to 8 km
1000 to 3000 ft
1500m to 5 km
500 to 1000 ft
800 to 1500m
200 to 500 ft
< 800m
< 200 ft
Symbols :   Thunderstorms  Fog  Heavy snow  Heavy precipitations  Wind > 20 kt







- Airport Elevation : 1333 ft
- IATA code : ICT


KICT - Wichita Mid Continent

CURRENT METAR :
  • 260753Z 21006KT 10SM SCT070 17/16 A2995 RMK AO2 SLP130 T01720156

EXPIRED METARs :
  • 260653Z 17004KT 10SM OVC140 18/16 A2994 RMK AO2 SLP128 T01780156
  • 260553Z 13006KT 10SM OVC140 18/16 A2997 RMK AO2 SLP138 60106 T01830161 10244 20183 402560161 56017

TAF KICT
Valid from the 26 at 06:00 until the 27 at 06:00 UTC


260520Z 2606/2706 17011KT P6SM SCT040 OVC080
FM260700 16007KT P6SM VCSH OVC035
FM260900 16008KT P6SM VCTS OVC040CB
FM261200 17008KT P6SM SCT030 BKN050
FM261500 18009KT P6SM SCT020 BKN030
FM261800 16011KT P6SM SCT015 BKN035
FM262300 17012KT P6SM SCT025 BKN080
KZKC FIR / North America



MET'MAP, your aeronautical weather chart ! - Copyright ORBIFLY December 2007 - Disclaimer

ORBIFLY MET'MAP TEAM :

Programming & Development : Alexandra Zaïnal
Concept & Development : Baudouin d'Aumeries
Co-Development & Prog : Marc-Olivier Méhu
Technical & hardware support : Manuel Goepfert

Contact : metmap@orbifly.com




SOURCES & CREDITS :

   NOAA       Earth
Advisory